createdAt,value
2022-10-25T00:00:44.581Z,64.68
2022-10-25T00:03:12.458Z,65.27
2022-10-25T00:05:41.443Z,65.20
2022-10-25T00:08:08.983Z,64.80
2022-10-25T00:10:36.358Z,65.52
2022-10-25T00:13:03.201Z,65.72
2022-10-25T00:15:29.816Z,66.00
2022-10-25T00:17:56.479Z,65.72
2022-10-25T00:20:23.142Z,66.05
2022-10-25T00:22:49.805Z,66.28
2022-10-25T00:25:16.701Z,65.86
2022-10-25T00:27:43.382Z,65.22
2022-10-25T00:30:10.777Z,65.79
2022-10-25T00:32:37.459Z,65.67
2022-10-25T00:35:04.686Z,65.29
2022-10-25T00:37:31.390Z,65.02
2022-10-25T00:39:58.094Z,65.29
2022-10-25T00:42:26.805Z,65.01
2022-10-25T00:45:06.250Z,65.01
2022-10-25T00:47:42.597Z,65.19
2022-10-25T00:50:30.671Z,65.35
2022-10-25T00:53:06.518Z,65.41
2022-10-25T00:55:35.505Z,65.11
2022-10-25T00:58:02.124Z,65.74
2022-10-25T01:00:28.853Z,65.79
2022-10-25T01:05:23.954Z,66.30
2022-10-25T01:07:51.505Z,66.17
2022-10-25T01:10:18.329Z,65.99
2022-10-25T01:12:47.438Z,66.49
2022-10-25T01:15:16.798Z,66.11
2022-10-25T01:17:58.474Z,66.16
2022-10-25T01:20:33.904Z,65.63
2022-10-25T01:23:44.604Z,65.86
2022-10-25T01:26:20.792Z,66.04
2022-10-25T01:28:53.161Z,66.28
2022-10-25T01:31:49.316Z,66.26
2022-10-25T01:34:29.121Z,66.26
2022-10-25T01:36:55.726Z,66.46
2022-10-25T01:39:31.042Z,67.74
2022-10-25T01:42:35.052Z,68.27
2022-10-25T01:45:19.886Z,67.60
2022-10-25T01:48:13.965Z,67.65
2022-10-25T01:50:42.839Z,67.79
2022-10-25T01:53:10.345Z,67.71
2022-10-25T01:55:46.171Z,67.87
2022-10-25T01:58:31.619Z,67.90
2022-10-25T02:01:27.503Z,68.37
2022-10-25T02:04:37.763Z,68.65
2022-10-25T02:07:29.065Z,68.65
2022-10-25T02:13:04.143Z,67.81
2022-10-25T02:15:41.114Z,67.72
2022-10-25T02:18:14.760Z,67.59
2022-10-25T02:20:46.608Z,67.67
2022-10-25T02:23:15.455Z,67.81
2022-10-25T02:25:43.197Z,67.76
2022-10-25T02:28:14.554Z,67.59
2022-10-25T02:30:43.852Z,67.53
2022-10-25T02:33:11.657Z,67.89
2022-10-25T02:35:39.052Z,67.91
2022-10-25T02:38:06.207Z,68.22
2022-10-25T02:40:33.104Z,68.14
2022-10-25T02:42:59.721Z,67.90
2022-10-25T02:45:26.435Z,68.00
2022-10-25T02:47:53.122Z,68.04
2022-10-25T02:50:19.858Z,67.75
2022-10-25T02:52:46.745Z,68.04
2022-10-25T02:55:13.681Z,69.22
2022-10-25T02:57:40.314Z,69.14
2022-10-25T03:00:08.206Z,69.31
2022-10-25T03:02:34.895Z,69.06
2022-10-25T03:05:01.507Z,69.79
2022-10-25T03:07:28.199Z,69.44
2022-10-25T03:09:54.837Z,69.43
2022-10-25T03:12:21.491Z,69.43
2022-10-25T03:14:48.080Z,69.55
2022-10-25T03:17:14.696Z,69.44
2022-10-25T03:19:41.271Z,69.20
2022-10-25T03:22:07.885Z,69.03
2022-10-25T03:24:34.495Z,68.59
2022-10-25T03:27:01.579Z,68.80
2022-10-25T03:29:28.362Z,69.06
2022-10-25T03:31:55.099Z,69.23
2022-10-25T03:34:21.750Z,69.22
2022-10-25T03:36:48.394Z,69.20
2022-10-25T03:39:15.034Z,69.66
2022-10-25T03:41:41.736Z,69.43
2022-10-25T03:44:08.347Z,69.19
2022-10-25T03:46:35.022Z,69.15
2022-10-25T03:49:01.754Z,69.55
2022-10-25T03:51:28.351Z,69.17
2022-10-25T03:53:55.016Z,68.96
2022-10-25T03:56:21.675Z,69.01
2022-10-25T03:58:48.294Z,69.16
2022-10-25T04:01:15.098Z,69.13
2022-10-25T04:03:43.957Z,68.99
2022-10-25T04:06:11.006Z,69.19
2022-10-25T04:08:38.481Z,69.70
2022-10-25T04:11:05.345Z,69.92
2022-10-25T04:13:32.052Z,69.64
2022-10-25T04:15:58.703Z,69.71
2022-10-25T04:18:25.426Z,69.35
2022-10-25T04:20:52.011Z,69.54
2022-10-25T04:23:18.645Z,69.54
2022-10-25T04:25:48.036Z,69.29
2022-10-25T04:28:14.657Z,69.60
2022-10-25T04:30:41.769Z,69.36
2022-10-25T04:33:08.414Z,69.86
2022-10-25T04:35:35.047Z,69.45
2022-10-25T04:38:01.684Z,69.31
2022-10-25T04:40:28.335Z,69.33
2022-10-25T04:42:54.981Z,69.16
2022-10-25T04:45:21.648Z,69.05
2022-10-25T04:47:48.371Z,69.04
2022-10-25T04:50:15.177Z,68.64
2022-10-25T04:52:41.839Z,68.75
2022-10-25T04:55:08.650Z,68.77
2022-10-25T04:57:35.340Z,68.70
2022-10-25T05:00:02.086Z,68.46
2022-10-25T05:02:28.712Z,68.14
2022-10-25T05:04:55.431Z,67.97
2022-10-25T05:07:22.456Z,68.24
2022-10-25T05:09:49.088Z,68.25
2022-10-25T05:12:15.814Z,68.22
2022-10-25T05:14:42.605Z,68.61
2022-10-25T05:17:09.285Z,68.41
2022-10-25T05:19:35.953Z,68.47
2022-10-25T05:22:02.594Z,68.83
2022-10-25T05:24:29.442Z,69.04
2022-10-25T05:26:56.162Z,68.59
2022-10-25T05:29:23.202Z,68.86
2022-10-25T05:31:50.127Z,68.60
2022-10-25T05:34:16.961Z,68.95
2022-10-25T05:36:43.691Z,69.01
2022-10-25T05:39:10.422Z,69.17
2022-10-25T05:41:37.480Z,68.78
2022-10-25T05:44:05.348Z,68.70
2022-10-25T05:46:32.307Z,68.73
2022-10-25T05:48:59.799Z,68.68
2022-10-25T05:51:34.230Z,68.79
2022-10-25T05:54:11.355Z,68.63
2022-10-25T05:56:38.518Z,68.71
2022-10-25T05:59:10.832Z,68.61
2022-10-25T06:01:41.805Z,68.81
2022-10-25T06:04:09.114Z,68.54
2022-10-25T06:06:37.008Z,68.59
2022-10-25T06:09:04.002Z,68.73
2022-10-25T06:11:31.135Z,69.30
2022-10-25T06:13:57.786Z,68.94
2022-10-25T06:16:25.009Z,69.16
2022-10-25T06:18:53.114Z,69.25
2022-10-25T06:21:23.377Z,69.19
2022-10-25T06:23:51.159Z,68.92
2022-10-25T06:26:20.510Z,68.89
2022-10-25T06:28:52.522Z,68.88
2022-10-25T06:31:23.003Z,68.62
2022-10-25T06:33:49.785Z,68.80
2022-10-25T06:36:21.734Z,68.59
2022-10-25T06:38:49.052Z,68.46
2022-10-25T06:41:21.294Z,68.34
2022-10-25T06:43:48.890Z,68.49
2022-10-25T06:46:33.503Z,68.30
2022-10-25T06:49:02.078Z,69.03
2022-10-25T06:51:29.624Z,68.85
2022-10-25T06:54:01.652Z,69.15
2022-10-25T06:56:28.948Z,69.15
2022-10-25T06:58:55.945Z,68.84
2022-10-25T07:01:24.564Z,69.09
2022-10-25T07:03:53.712Z,69.20
2022-10-25T07:06:26.535Z,69.24
2022-10-25T07:08:58.815Z,69.11
2022-10-25T07:11:26.886Z,69.24
2022-10-25T07:13:53.680Z,68.67
2022-10-25T07:16:21.170Z,68.58
2022-10-25T07:18:48.464Z,68.11
2022-10-25T07:21:17.855Z,68.13
2022-10-25T07:23:44.915Z,68.10
2022-10-25T07:26:22.279Z,68.15
2022-10-25T07:28:51.751Z,67.87
2022-10-25T07:31:33.253Z,67.57
2022-10-25T07:34:01.735Z,67.46
2022-10-25T07:36:29.003Z,66.76
2022-10-25T07:38:56.953Z,66.73
2022-10-25T07:41:25.163Z,66.58
2022-10-25T07:43:51.876Z,66.43
2022-10-25T07:46:18.623Z,66.07
2022-10-25T07:48:45.355Z,65.26
2022-10-25T07:51:15.178Z,65.20
2022-10-25T07:53:42.364Z,64.88
2022-10-25T07:56:22.162Z,64.53
2022-10-25T07:58:51.996Z,63.68
2022-10-25T08:01:21.789Z,63.66
2022-10-25T08:03:49.017Z,63.60
2022-10-25T08:06:15.720Z,63.49
2022-10-25T08:08:42.365Z,63.27
2022-10-25T08:11:09.268Z,63.22
2022-10-25T08:13:37.291Z,63.24
2022-10-25T08:16:05.570Z,62.83
2022-10-25T08:18:32.835Z,63.26
2022-10-25T08:21:03.195Z,63.25
2022-10-25T08:23:31.695Z,62.96
2022-10-25T08:25:59.168Z,62.66
2022-10-25T08:28:26.040Z,62.50
2022-10-25T08:30:54.647Z,62.19
2022-10-25T08:33:21.293Z,62.00
2022-10-25T08:35:47.932Z,62.37
2022-10-25T08:38:14.569Z,61.85
2022-10-25T08:40:47.306Z,61.77
2022-10-25T08:43:39.692Z,61.57
2022-10-25T08:46:15.905Z,61.30
2022-10-25T08:48:48.485Z,61.54
2022-10-25T08:51:24.235Z,61.51
2022-10-25T08:56:28.184Z,61.13
2022-10-25T08:59:00.148Z,61.39
2022-10-25T09:01:36.822Z,61.33
2022-10-25T09:04:03.729Z,62.04
2022-10-25T09:06:48.883Z,61.91
2022-10-25T09:09:28.023Z,62.18
2022-10-25T09:12:09.069Z,61.67
2022-10-25T09:14:47.970Z,61.28
2022-10-25T09:17:17.657Z,61.48
2022-10-25T09:19:53.586Z,61.25
2022-10-25T09:22:26.951Z,62.03
2022-10-25T09:25:06.778Z,62.72
2022-10-25T09:27:43.686Z,61.62
2022-10-25T09:30:13.282Z,60.68
2022-10-25T09:32:44.637Z,59.92
2022-10-25T09:35:25.859Z,59.26
2022-10-25T09:37:57.989Z,59.10
2022-10-25T09:40:33.728Z,59.69
2022-10-25T09:43:07.852Z,60.62
2022-10-25T09:45:49.734Z,61.16
2022-10-25T09:48:29.118Z,62.48
2022-10-25T09:51:13.101Z,62.58
2022-10-25T09:53:42.055Z,62.78
2022-10-25T09:56:08.877Z,61.72
2022-10-25T09:58:40.586Z,60.70
2022-10-25T10:01:21.184Z,60.62
2022-10-25T10:03:52.295Z,60.38
2022-10-25T10:06:26.210Z,60.50
2022-10-25T10:09:03.929Z,60.40
2022-10-25T10:11:32.893Z,59.95
2022-10-25T10:14:27.036Z,59.98
2022-10-25T10:16:56.610Z,59.63
2022-10-25T10:19:25.864Z,59.62
2022-10-25T10:21:55.770Z,59.99
2022-10-25T10:24:27.564Z,59.71
2022-10-25T10:26:59.425Z,59.59
2022-10-25T10:29:37.463Z,59.44
2022-10-25T10:32:25.685Z,59.84
2022-10-25T10:34:55.179Z,59.83
2022-10-25T10:37:29.477Z,59.23
2022-10-25T10:40:00.734Z,59.70
2022-10-25T10:45:09.863Z,59.43
2022-10-25T10:47:44.761Z,59.42
2022-10-25T10:50:20.483Z,59.37
2022-10-25T10:52:55.201Z,58.90
2022-10-25T10:55:31.500Z,58.16
2022-10-25T10:58:11.548Z,57.32
2022-10-25T11:00:38.158Z,56.99
2022-10-25T11:03:04.795Z,56.28
2022-10-25T11:05:37.397Z,55.02
2022-10-25T11:08:07.117Z,53.77
2022-10-25T11:10:37.382Z,51.55
2022-10-25T11:13:11.352Z,45.63
2022-10-25T11:16:03.069Z,39.83
2022-10-25T11:19:20.164Z,36.60
2022-10-25T11:21:59.243Z,33.85
2022-10-25T11:24:50.129Z,32.93
2022-10-25T11:27:19.548Z,33.98
2022-10-25T11:30:02.098Z,36.29
2022-10-25T11:32:53.947Z,40.10
2022-10-25T11:35:45.759Z,40.88
2022-10-25T11:38:18.299Z,43.32
2022-10-25T11:41:23.289Z,43.49
2022-10-25T11:44:04.008Z,43.85
2022-10-25T11:46:45.725Z,40.79
2022-10-25T11:49:32.558Z,37.21
2022-10-25T11:52:34.647Z,33.92
2022-10-25T11:55:20.208Z,32.04
2022-10-25T11:57:55.811Z,30.40
2022-10-25T12:00:31.268Z,28.71
2022-10-25T12:03:48.386Z,29.79
2022-10-25T12:06:41.857Z,31.98
2022-10-25T12:09:36.040Z,34.70
2022-10-25T12:12:26.317Z,36.13
2022-10-25T12:14:58.201Z,38.79
2022-10-25T12:17:28.704Z,38.44
2022-10-25T12:19:59.332Z,38.13
2022-10-25T12:22:30.988Z,38.62
2022-10-25T12:25:18.540Z,38.33
2022-10-25T12:27:48.971Z,38.85
2022-10-25T12:30:18.558Z,38.60
2022-10-25T12:33:02.437Z,38.97
2022-10-25T12:35:34.297Z,39.33
2022-10-25T12:38:41.451Z,40.29
2022-10-25T12:41:17.763Z,40.01
2022-10-25T12:44:10.812Z,40.69
2022-10-25T12:46:51.551Z,42.01
2022-10-25T12:49:18.120Z,42.96
2022-10-25T12:52:02.796Z,43.06
2022-10-25T12:54:51.393Z,43.10
2022-10-25T12:57:33.154Z,43.32
2022-10-25T13:03:19.357Z,44.97
2022-10-25T13:05:58.513Z,45.21
2022-10-25T13:08:26.547Z,45.44
2022-10-25T13:11:00.036Z,44.73
2022-10-25T13:13:49.749Z,46.08
2022-10-25T13:16:26.343Z,45.02
2022-10-25T13:19:42.718Z,45.64
2022-10-25T13:22:40.936Z,44.01
2022-10-25T13:25:13.499Z,43.73
2022-10-25T13:28:15.466Z,44.29
2022-10-25T13:30:45.508Z,44.62
2022-10-25T13:33:23.901Z,44.16
2022-10-25T13:35:50.625Z,43.29
2022-10-25T13:38:23.054Z,44.05
2022-10-25T13:41:19.394Z,43.85
2022-10-25T13:43:59.451Z,44.50
2022-10-25T13:46:37.801Z,43.75
2022-10-25T13:49:19.837Z,44.25
2022-10-25T13:51:47.123Z,43.76
2022-10-25T13:54:13.938Z,44.86
2022-10-25T13:56:53.746Z,44.89
2022-10-25T13:59:49.862Z,45.20
2022-10-25T14:02:20.492Z,45.55
2022-10-25T14:04:47.705Z,45.67
2022-10-25T14:07:46.506Z,45.74
2022-10-25T14:12:49.383Z,47.21
2022-10-25T14:15:30.062Z,47.52
2022-10-25T14:17:58.419Z,46.30
2022-10-25T14:20:30.682Z,46.06
2022-10-25T14:23:13.498Z,46.48
2022-10-25T14:25:42.531Z,46.98
2022-10-25T14:28:27.369Z,46.58
2022-10-25T14:30:57.027Z,47.07
2022-10-25T14:33:35.444Z,47.40
2022-10-25T14:36:22.742Z,47.07
2022-10-25T14:38:53.857Z,47.57
2022-10-25T14:41:29.612Z,48.31
2022-10-25T14:43:56.984Z,47.98
2022-10-25T14:46:30.061Z,48.48
2022-10-25T14:48:58.537Z,47.92
2022-10-25T14:51:27.797Z,48.81
2022-10-25T14:54:00.484Z,49.33
2022-10-25T14:56:37.236Z,49.58
2022-10-25T14:59:06.443Z,49.20
2022-10-25T15:01:34.595Z,50.31
2022-10-25T15:04:01.528Z,50.19
2022-10-25T15:06:32.287Z,50.39
2022-10-25T15:09:37.372Z,49.91
2022-10-25T15:12:12.675Z,50.37
2022-10-25T15:14:39.656Z,49.82
2022-10-25T15:17:16.487Z,50.18
2022-10-25T15:20:05.193Z,50.81
2022-10-25T15:22:37.989Z,50.43
2022-10-25T15:25:28.604Z,50.79
2022-10-25T15:27:55.417Z,50.59
2022-10-25T15:30:37.293Z,50.61
2022-10-25T15:33:05.954Z,51.87
2022-10-25T15:35:38.907Z,52.53
2022-10-25T15:38:05.835Z,53.00
2022-10-25T15:40:32.552Z,52.33
2022-10-25T15:42:59.198Z,53.66
2022-10-25T15:45:25.883Z,54.42
2022-10-25T15:47:55.024Z,54.14
2022-10-25T15:50:22.964Z,54.82
2022-10-25T15:52:50.185Z,55.25
2022-10-25T15:55:17.442Z,55.24
2022-10-25T15:57:44.516Z,56.59
2022-10-25T16:00:30.910Z,56.97
2022-10-25T16:02:58.810Z,56.80
2022-10-25T16:05:34.194Z,56.69
2022-10-25T16:08:01.285Z,56.88
2022-10-25T16:10:29.030Z,57.06
2022-10-25T16:13:06.000Z,57.03
2022-10-25T16:15:33.237Z,56.93
2022-10-25T16:18:00.606Z,57.35
2022-10-25T16:20:30.345Z,57.03
2022-10-25T16:22:57.652Z,57.30
2022-10-25T16:25:30.451Z,57.43
2022-10-25T16:28:00.381Z,57.81
2022-10-25T16:30:31.087Z,57.81
2022-10-25T16:32:57.764Z,58.50
2022-10-25T16:35:24.675Z,58.91
2022-10-25T16:37:51.859Z,59.25
2022-10-25T16:40:19.771Z,59.36
2022-10-25T16:42:47.215Z,59.36
2022-10-25T16:45:27.520Z,59.28
2022-10-25T16:47:56.564Z,59.37
2022-10-25T16:50:28.957Z,59.14
2022-10-25T16:53:04.537Z,59.24
2022-10-25T16:55:31.227Z,59.24
2022-10-25T16:57:59.140Z,59.44
2022-10-25T17:00:27.078Z,59.46
2022-10-25T17:02:54.598Z,59.51
2022-10-25T17:05:24.687Z,59.45
2022-10-25T17:07:51.622Z,59.73
2022-10-25T17:10:20.384Z,59.58
2022-10-25T17:13:05.326Z,59.92
2022-10-25T17:15:32.287Z,59.74
2022-10-25T17:17:59.006Z,60.09
2022-10-25T17:20:26.070Z,60.20
2022-10-25T17:22:54.294Z,60.25
2022-10-25T17:25:21.138Z,60.19
2022-10-25T17:27:52.365Z,60.65
2022-10-25T17:30:20.069Z,60.71
2022-10-25T17:32:46.930Z,60.83
2022-10-25T17:35:13.604Z,61.14
2022-10-25T17:37:43.350Z,61.14
2022-10-25T17:40:11.783Z,60.94
2022-10-25T17:42:38.500Z,61.13
2022-10-25T17:45:06.337Z,61.22
2022-10-25T17:47:32.981Z,61.02
2022-10-25T17:50:01.555Z,61.46
2022-10-25T17:52:28.497Z,61.48
2022-10-25T17:54:55.217Z,61.72
2022-10-25T17:57:21.945Z,61.85
2022-10-25T17:59:48.725Z,61.73
2022-10-25T18:02:15.401Z,61.92
2022-10-25T18:05:01.240Z,61.98
2022-10-25T18:07:34.064Z,62.38
2022-10-25T18:10:01.723Z,62.31
2022-10-25T18:12:28.656Z,62.40
2022-10-25T18:14:55.649Z,62.71
2022-10-25T18:17:22.585Z,62.23
2022-10-25T18:19:49.269Z,62.73
2022-10-25T18:22:18.004Z,63.00
2022-10-25T18:24:44.933Z,62.94
2022-10-25T18:27:13.800Z,63.40
2022-10-25T18:29:43.308Z,63.51
2022-10-25T18:32:10.026Z,63.51
2022-10-25T18:34:36.707Z,63.11
2022-10-25T18:37:03.414Z,63.26
2022-10-25T18:39:30.050Z,63.37
2022-10-25T18:41:57.966Z,63.69
2022-10-25T18:44:24.711Z,63.41
2022-10-25T18:46:51.466Z,63.66
2022-10-25T18:49:18.163Z,63.65
2022-10-25T18:51:44.813Z,63.45
2022-10-25T18:54:12.383Z,63.79
2022-10-25T18:56:39.079Z,63.45
2022-10-25T18:59:06.007Z,64.05
2022-10-25T19:01:33.178Z,64.43
2022-10-25T19:04:01.631Z,64.23
2022-10-25T19:06:29.462Z,64.52
2022-10-25T19:08:56.506Z,64.78
2022-10-25T19:11:23.454Z,64.75
2022-10-25T19:13:54.698Z,64.91
2022-10-25T19:16:22.401Z,64.82
2022-10-25T19:18:49.130Z,65.02
2022-10-25T19:21:18.192Z,65.03
2022-10-25T19:23:46.241Z,64.97
2022-10-25T19:26:19.375Z,64.82
2022-10-25T19:28:47.115Z,64.81
2022-10-25T19:31:16.617Z,65.04
2022-10-25T19:33:47.885Z,65.33
2022-10-25T19:36:15.596Z,65.17
2022-10-25T19:38:42.559Z,65.15
2022-10-25T19:41:16.227Z,65.09
2022-10-25T19:43:43.153Z,65.42
2022-10-25T19:46:11.509Z,65.39
2022-10-25T19:48:38.641Z,65.20
2022-10-25T19:51:07.232Z,65.15
2022-10-25T19:53:34.609Z,65.70
2022-10-25T19:56:13.570Z,66.09
2022-10-25T19:58:40.654Z,66.04
2022-10-25T20:01:11.415Z,65.82
2022-10-25T20:03:39.085Z,66.22
2022-10-25T20:06:08.873Z,65.82
2022-10-25T20:08:37.844Z,65.72
2022-10-25T20:11:05.175Z,65.64
2022-10-25T20:13:32.176Z,65.65
2022-10-25T20:15:59.082Z,65.60
2022-10-25T20:18:31.070Z,66.07
2022-10-25T20:21:00.893Z,65.71
2022-10-25T20:23:28.465Z,65.40
2022-10-25T20:25:55.123Z,65.81
2022-10-25T20:28:22.118Z,65.96
2022-10-25T20:30:49.262Z,65.80
2022-10-25T20:33:16.126Z,65.88
2022-10-25T20:35:47.034Z,65.55
2022-10-25T20:38:13.749Z,65.18
2022-10-25T20:40:41.142Z,65.55
2022-10-25T20:43:07.980Z,65.16
2022-10-25T20:45:34.928Z,65.29
2022-10-25T20:48:01.586Z,65.51
2022-10-25T20:50:29.453Z,65.29
2022-10-25T20:53:09.914Z,65.17
2022-10-25T20:55:37.987Z,65.34
2022-10-25T20:58:05.078Z,65.42
2022-10-25T21:00:32.353Z,65.34
2022-10-25T21:02:59.774Z,65.27
2022-10-25T21:05:26.564Z,65.32
2022-10-25T21:07:53.351Z,65.19
2022-10-25T21:10:20.002Z,65.17
2022-10-25T21:12:46.696Z,65.47
2022-10-25T21:15:13.336Z,65.40
2022-10-25T21:17:40.016Z,65.28
2022-10-25T21:20:07.577Z,65.51
2022-10-25T21:22:34.367Z,65.72
2022-10-25T21:25:01.599Z,65.96
2022-10-25T21:27:28.258Z,66.07
2022-10-25T21:29:55.181Z,66.54
2022-10-25T21:32:22.196Z,66.38
2022-10-25T21:34:48.892Z,66.69
2022-10-25T21:37:15.644Z,67.34
2022-10-25T21:39:43.413Z,67.29
2022-10-25T21:42:10.132Z,67.76
2022-10-25T21:44:36.796Z,68.18
2022-10-25T21:47:03.413Z,68.11
2022-10-25T21:49:30.119Z,68.11
2022-10-25T21:51:56.776Z,67.78
2022-10-25T21:54:24.700Z,67.38
2022-10-25T21:56:54.525Z,67.19
2022-10-25T21:59:22.098Z,66.87
2022-10-25T22:01:49.285Z,66.60
2022-10-25T22:04:16.546Z,66.38
2022-10-25T22:06:43.378Z,66.43
2022-10-25T22:09:10.161Z,66.44
2022-10-25T22:11:38.295Z,66.18
2022-10-25T22:14:08.123Z,66.41
2022-10-25T22:16:35.186Z,66.17
2022-10-25T22:19:05.450Z,66.37
2022-10-25T22:21:35.804Z,66.21
2022-10-25T22:24:03.989Z,66.16
2022-10-25T22:26:30.827Z,66.27
2022-10-25T22:28:59.117Z,66.58
2022-10-25T22:31:28.072Z,66.59
2022-10-25T22:33:57.086Z,67.16
2022-10-25T22:36:26.416Z,67.69
2022-10-25T22:38:53.363Z,67.77
2022-10-25T22:41:22.433Z,67.52
2022-10-25T22:43:49.387Z,68.36
2022-10-25T22:46:24.716Z,68.58
2022-10-25T22:48:53.221Z,68.05
2022-10-25T22:51:20.749Z,67.85
2022-10-25T22:53:47.746Z,67.70
2022-10-25T22:56:17.254Z,67.70
2022-10-25T22:58:49.277Z,67.42
2022-10-25T23:01:19.108Z,67.56
2022-10-25T23:03:48.877Z,67.75
2022-10-25T23:06:18.160Z,67.12
2022-10-25T23:08:45.007Z,67.18
2022-10-25T23:11:22.144Z,67.25
2022-10-25T23:13:49.179Z,66.79
2022-10-25T23:16:16.802Z,66.85
2022-10-25T23:18:44.089Z,66.91
2022-10-25T23:21:17.026Z,67.09
2022-10-25T23:23:44.830Z,66.95
2022-10-25T23:26:20.169Z,66.98
2022-10-25T23:28:47.229Z,66.77
2022-10-25T23:31:14.465Z,66.85
2022-10-25T23:33:42.276Z,66.93
2022-10-25T23:36:12.628Z,66.39
2022-10-25T23:38:39.530Z,66.55
2022-10-25T23:41:06.530Z,66.36
2022-10-25T23:43:34.348Z,66.40
2022-10-25T23:46:01.704Z,66.32
2022-10-25T23:48:28.454Z,65.90
2022-10-25T23:50:56.896Z,66.10
2022-10-25T23:53:24.206Z,66.09
2022-10-25T23:55:50.906Z,66.42
2022-10-25T23:58:17.574Z,66.21
